createdAt,value
2022-12-24T00:02:11.253Z,118.03
2022-12-24T00:05:13.326Z,111.35
2022-12-24T00:08:15.581Z,112.32
2022-12-24T00:11:18.096Z,117.30
2022-12-24T00:14:20.252Z,117.38
2022-12-24T00:17:22.304Z,105.38
2022-12-24T00:20:25.324Z,108.10
2022-12-24T00:23:27.508Z,113.32
2022-12-24T00:26:29.617Z,111.32
2022-12-24T00:29:32.814Z,103.05
2022-12-24T00:32:34.969Z,110.28
2022-12-24T00:35:39.437Z,111.55
2022-12-24T00:38:41.574Z,112.95
2022-12-24T00:41:43.878Z,112.20
2022-12-24T00:44:45.995Z,99.93
2022-12-24T00:47:48.091Z,108.95
2022-12-24T00:50:51.391Z,90.00
2022-12-24T00:53:54.252Z,99.13
2022-12-24T00:56:56.437Z,90.10
2022-12-24T00:59:58.525Z,100.25
2022-12-24T01:03:00.725Z,89.90
2022-12-24T01:06:04.033Z,103.50
2022-12-24T01:09:06.083Z,89.75
2022-12-24T01:12:08.140Z,98.93
2022-12-24T01:15:12.133Z,87.65
2022-12-24T01:18:14.269Z,100.22
2022-12-24T01:21:16.276Z,94.78
2022-12-24T01:24:18.413Z,91.47
2022-12-24T01:27:21.087Z,82.43
2022-12-24T01:30:23.387Z,108.20
2022-12-24T01:33:29.582Z,91.63
2022-12-24T01:36:31.753Z,88.90
2022-12-24T01:39:33.909Z,94.80
2022-12-24T01:42:54.792Z,84.93
2022-12-24T01:46:07.819Z,92.82
2022-12-24T01:49:14.027Z,88.28
2022-12-24T01:52:26.976Z,94.93
2022-12-24T01:55:29.113Z,86.80
2022-12-24T01:58:34.790Z,86.75
2022-12-24T02:01:37.499Z,105.50
2022-12-24T02:05:05.110Z,109.45
2022-12-24T02:08:08.323Z,99.43
2022-12-24T02:11:15.735Z,97.28
2022-12-24T02:14:18.439Z,103.25
2022-12-24T02:17:31.816Z,96.05
2022-12-24T02:20:51.730Z,97.50
2022-12-24T02:23:59.543Z,120.63
2022-12-24T02:27:25.196Z,108.47
2022-12-24T02:30:42.273Z,110.75
2022-12-24T02:34:19.328Z,113.47
2022-12-24T02:37:35.546Z,107.60
2022-12-24T02:40:45.383Z,111.75
2022-12-24T02:43:49.690Z,106.57
2022-12-24T02:46:53.297Z,105.40
2022-12-24T02:49:55.461Z,106.03
2022-12-24T02:52:57.549Z,92.28
2022-12-24T02:56:02.128Z,101.13
2022-12-24T02:59:19.310Z,98.07
2022-12-24T03:02:58.721Z,82.75
2022-12-24T03:06:25.101Z,99.57
2022-12-24T03:09:50.784Z,93.40
2022-12-24T03:12:57.836Z,93.10
2022-12-24T03:16:04.071Z,101.88
2022-12-24T03:19:06.271Z,91.78
2022-12-24T03:22:11.781Z,107.43
2022-12-24T03:25:13.745Z,95.38
2022-12-24T03:28:18.630Z,109.60
2022-12-24T03:31:21.412Z,90.85
2022-12-24T03:34:23.442Z,91.85
2022-12-24T03:37:25.803Z,88.03
2022-12-24T03:40:27.804Z,99.20
2022-12-24T03:43:30.151Z,94.22
2022-12-24T03:46:32.273Z,105.60
2022-12-24T03:49:34.333Z,100.65
2022-12-24T03:52:36.419Z,119.10
2022-12-24T03:55:39.754Z,102.43
2022-12-24T03:58:41.888Z,103.90
2022-12-24T04:01:44.118Z,100.03
2022-12-24T04:04:46.216Z,107.05
2022-12-24T04:07:48.518Z,98.40
2022-12-24T04:10:50.556Z,102.00
2022-12-24T04:13:52.651Z,92.78
2022-12-24T04:16:54.827Z,87.32
2022-12-24T04:19:56.871Z,86.22
2022-12-24T04:22:59.048Z,93.15
2022-12-24T04:26:02.506Z,89.72
2022-12-24T04:29:04.582Z,99.00
2022-12-24T04:32:06.694Z,95.72
2022-12-24T04:35:09.373Z,108.88
2022-12-24T04:38:11.856Z,101.32
2022-12-24T04:41:23.978Z,97.38
2022-12-24T04:44:26.656Z,91.38
2022-12-24T04:47:28.729Z,87.05
2022-12-24T04:50:30.770Z,88.18
2022-12-24T04:53:33.940Z,132.52
2022-12-24T04:56:36.036Z,97.13
2022-12-24T04:59:38.071Z,100.70
2022-12-24T05:02:40.277Z,83.90
2022-12-24T05:05:42.486Z,101.85
2022-12-24T05:08:44.715Z,99.70
2022-12-24T05:11:46.707Z,91.32
2022-12-24T05:14:48.741Z,97.65
2022-12-24T05:17:51.131Z,102.88
2022-12-24T05:20:53.356Z,103.90
2022-12-24T05:24:14.204Z,96.20
2022-12-24T05:27:16.278Z,101.82
2022-12-24T05:30:18.496Z,101.32
2022-12-24T05:33:20.744Z,93.57
2022-12-24T05:36:23.872Z,84.13
2022-12-24T05:39:26.064Z,94.18
2022-12-24T05:42:28.157Z,164.55
2022-12-24T05:45:30.207Z,150.13
2022-12-24T05:48:32.509Z,126.10
2022-12-24T05:51:34.724Z,110.38
2022-12-24T05:54:36.757Z,89.43
2022-12-24T05:57:41.427Z,79.35
2022-12-24T06:00:43.915Z,74.80
2022-12-24T06:03:45.991Z,87.97
2022-12-24T06:06:48.051Z,90.07
2022-12-24T06:09:49.984Z,91.00
2022-12-24T06:12:52.250Z,97.40
2022-12-24T06:16:11.828Z,94.32
2022-12-24T06:19:14.664Z,109.78
2022-12-24T06:22:16.786Z,103.63
2022-12-24T06:25:19.405Z,79.63
2022-12-24T06:28:21.512Z,65.10
2022-12-24T06:31:24.335Z,61.20
2022-12-24T06:34:26.394Z,60.10
2022-12-24T06:37:28.363Z,54.95
2022-12-24T06:40:30.880Z,51.25
2022-12-24T06:43:34.919Z,58.60
2022-12-24T06:46:39.353Z,66.55
2022-12-24T06:49:42.670Z,68.53
2022-12-24T06:52:44.817Z,69.25
2022-12-24T06:55:46.883Z,64.30
2022-12-24T06:58:49.292Z,66.65
2022-12-24T07:01:51.330Z,69.93
2022-12-24T07:04:53.533Z,75.88
2022-12-24T07:07:59.042Z,60.72
2022-12-24T07:11:01.105Z,75.53
2022-12-24T07:14:03.167Z,74.38
2022-12-24T07:17:10.889Z,74.93
2022-12-24T07:20:17.694Z,58.58
2022-12-24T07:23:19.703Z,62.45
2022-12-24T07:26:21.836Z,64.22
2022-12-24T07:29:23.813Z,66.97
2022-12-24T07:32:25.963Z,65.70
2022-12-24T07:35:28.108Z,66.63
2022-12-24T07:38:30.914Z,62.22
2022-12-24T07:41:38.002Z,69.25
2022-12-24T07:44:43.542Z,63.08
2022-12-24T07:47:45.527Z,54.00
2022-12-24T07:50:50.065Z,56.53
2022-12-24T07:53:52.104Z,53.58
2022-12-24T07:56:54.961Z,53.33
2022-12-24T07:59:57.014Z,46.08
2022-12-24T08:03:00.545Z,49.92
2022-12-24T08:06:02.775Z,49.88
2022-12-24T08:09:04.874Z,53.08
2022-12-24T08:12:07.107Z,58.22
2022-12-24T08:15:09.579Z,50.58
2022-12-24T08:18:12.421Z,51.92
2022-12-24T08:21:14.598Z,51.10
2022-12-24T08:24:16.609Z,53.15
2022-12-24T08:27:18.769Z,51.42
2022-12-24T08:30:21.657Z,48.83
2022-12-24T08:33:23.779Z,53.70
2022-12-24T08:36:25.966Z,43.67
2022-12-24T08:39:27.977Z,49.78
2022-12-24T08:42:30.386Z,49.75
2022-12-24T08:45:39.744Z,44.83
2022-12-24T08:48:46.734Z,41.97
2022-12-24T08:51:49.395Z,44.90
2022-12-24T08:54:53.229Z,42.92
2022-12-24T08:57:55.240Z,39.33
2022-12-24T09:00:57.349Z,39.92
2022-12-24T09:04:03.281Z,40.60
2022-12-24T09:07:09.723Z,41.67
2022-12-24T09:10:17.609Z,29.27
2022-12-24T09:13:19.788Z,28.33
2022-12-24T09:16:22.148Z,45.65
2022-12-24T09:19:24.842Z,35.17
2022-12-24T09:22:26.920Z,35.35
2022-12-24T09:25:29.044Z,31.60
2022-12-24T09:28:31.191Z,30.35
2022-12-24T09:31:33.758Z,31.20
2022-12-24T09:34:35.867Z,28.80
2022-12-24T09:37:37.996Z,34.58
2022-12-24T09:40:40.551Z,29.05
2022-12-24T09:43:49.515Z,31.77
2022-12-24T09:46:53.609Z,31.70
2022-12-24T09:50:00.270Z,37.67
2022-12-24T09:53:06.837Z,26.90
2022-12-24T09:56:19.357Z,39.17
2022-12-24T09:59:26.772Z,36.05
2022-12-24T10:02:29.149Z,42.78
2022-12-24T10:05:41.563Z,40.47
2022-12-24T10:09:05.318Z,55.72
2022-12-24T10:12:07.351Z,52.58
2022-12-24T10:15:17.968Z,47.67
2022-12-24T10:18:51.036Z,48.13
2022-12-24T10:22:05.019Z,45.90
2022-12-24T10:25:33.915Z,57.40
2022-12-24T10:28:43.415Z,47.03
2022-12-24T10:31:59.463Z,42.83
2022-12-24T10:35:09.351Z,46.33
2022-12-24T10:38:11.644Z,44.65
2022-12-24T10:41:15.291Z,42.65
2022-12-24T10:44:21.827Z,47.20
2022-12-24T10:47:24.664Z,41.40
2022-12-24T10:50:37.614Z,39.10
2022-12-24T10:53:47.447Z,43.15
2022-12-24T10:56:55.595Z,57.92
2022-12-24T10:59:58.165Z,44.92
2022-12-24T11:03:12.691Z,51.40
2022-12-24T11:06:22.777Z,43.75
2022-12-24T11:09:31.606Z,46.60
2022-12-24T11:13:00.201Z,44.75
2022-12-24T11:16:32.260Z,49.00
2022-12-24T11:19:39.626Z,52.42
2022-12-24T11:22:42.400Z,55.05
2022-12-24T11:25:51.761Z,53.33
2022-12-24T11:29:08.686Z,46.63
2022-12-24T11:32:18.737Z,43.05
2022-12-24T11:35:23.700Z,44.13
2022-12-24T11:38:28.176Z,41.55
2022-12-24T11:41:37.782Z,48.67
2022-12-24T11:44:48.952Z,42.53
2022-12-24T11:47:52.297Z,48.78
2022-12-24T11:51:00.174Z,49.25
2022-12-24T11:54:23.875Z,41.15
2022-12-24T11:57:33.206Z,42.55
2022-12-24T12:00:35.541Z,48.08
2022-12-24T12:03:48.892Z,48.50
2022-12-24T12:06:59.043Z,47.28
2022-12-24T12:10:32.146Z,38.05
2022-12-24T12:13:50.267Z,38.58
2022-12-24T12:17:39.792Z,51.87
2022-12-24T12:20:52.749Z,41.90
2022-12-24T12:24:31.560Z,47.38
2022-12-24T12:27:41.857Z,49.80
2022-12-24T12:30:45.944Z,48.17
2022-12-24T12:34:07.107Z,48.53
2022-12-24T12:37:27.492Z,44.42
2022-12-24T12:40:38.865Z,46.40
2022-12-24T12:44:04.084Z,44.45
2022-12-24T12:47:32.637Z,43.35
2022-12-24T12:50:48.551Z,42.25
2022-12-24T12:54:28.200Z,36.05
2022-12-24T12:57:37.767Z,35.88
2022-12-24T13:00:44.725Z,31.95
2022-12-24T13:04:01.915Z,31.50
2022-12-24T13:07:12.828Z,49.72
2022-12-24T13:10:42.838Z,54.33
2022-12-24T13:14:09.534Z,42.35
2022-12-24T13:17:42.299Z,49.10
2022-12-24T13:20:49.582Z,51.97
2022-12-24T13:24:04.603Z,49.47
2022-12-24T13:27:26.233Z,44.90
2022-12-24T13:30:41.293Z,43.42
2022-12-24T13:33:59.758Z,41.25
2022-12-24T13:37:05.440Z,47.17
2022-12-24T13:40:21.133Z,47.00
2022-12-24T13:43:46.444Z,42.95
2022-12-24T13:47:01.324Z,49.88
2022-12-24T13:50:22.655Z,42.97
2022-12-24T13:54:02.901Z,41.65
2022-12-24T13:57:27.222Z,48.53
2022-12-24T14:00:33.553Z,59.42
2022-12-24T14:03:41.697Z,51.70
2022-12-24T14:06:52.981Z,51.13
2022-12-24T14:09:55.443Z,58.53
2022-12-24T14:12:57.719Z,45.78
2022-12-24T14:16:05.469Z,50.42
2022-12-24T14:19:15.441Z,51.80
2022-12-24T14:22:35.819Z,29.77
2022-12-24T14:25:37.891Z,55.63
2022-12-24T14:28:44.778Z,52.35
2022-12-24T14:31:54.986Z,53.47
2022-12-24T14:35:30.951Z,47.58
2022-12-24T14:38:34.262Z,61.42
2022-12-24T14:41:53.513Z,51.72
2022-12-24T14:45:32.785Z,65.45
2022-12-24T14:48:46.197Z,57.70
2022-12-24T14:52:30.707Z,52.65
2022-12-24T14:55:45.195Z,56.28
2022-12-24T14:58:47.804Z,49.72
2022-12-24T15:01:50.170Z,48.65
2022-12-24T15:05:07.561Z,54.97
2022-12-24T15:08:27.773Z,42.60
2022-12-24T15:11:30.430Z,43.65
2022-12-24T15:14:44.208Z,48.47
2022-12-24T15:17:46.721Z,43.85
2022-12-24T15:20:53.709Z,50.10
2022-12-24T15:23:59.805Z,41.15
2022-12-24T15:27:17.061Z,45.40
2022-12-24T15:30:23.598Z,48.38
2022-12-24T15:33:31.219Z,49.05
2022-12-24T15:36:37.532Z,48.70
2022-12-24T15:39:40.721Z,44.15
2022-12-24T15:42:44.166Z,44.67
2022-12-24T15:45:48.525Z,45.63
2022-12-24T15:48:54.361Z,47.30
2022-12-24T15:52:07.604Z,41.85
2022-12-24T15:55:46.821Z,43.20
2022-12-24T15:58:48.999Z,46.40
2022-12-24T16:01:51.433Z,50.65
2022-12-24T16:04:57.294Z,74.72
2022-12-24T16:08:19.319Z,64.78
2022-12-24T16:11:24.422Z,68.70
2022-12-24T16:14:28.994Z,63.53
2022-12-24T16:17:34.687Z,53.58
2022-12-24T16:20:36.665Z,46.08
2022-12-24T16:23:47.425Z,47.63
2022-12-24T16:26:49.670Z,52.42
2022-12-24T16:29:51.809Z,47.90
2022-12-24T16:32:54.488Z,46.30
2022-12-24T16:35:59.963Z,53.25
2022-12-24T16:39:20.885Z,49.03
2022-12-24T16:42:41.944Z,47.20
2022-12-24T16:45:46.676Z,47.47
2022-12-24T16:48:49.338Z,42.72
2022-12-24T16:51:51.302Z,44.88
2022-12-24T16:54:53.438Z,46.38
2022-12-24T16:57:56.671Z,47.88
2022-12-24T17:00:59.899Z,47.92
2022-12-24T17:04:05.949Z,49.53
2022-12-24T17:07:08.781Z,45.97
2022-12-24T17:10:14.475Z,50.28
2022-12-24T17:13:16.707Z,47.33
2022-12-24T17:16:18.959Z,46.70
2022-12-24T17:19:21.048Z,35.15
2022-12-24T17:22:24.110Z,38.65
2022-12-24T17:25:26.159Z,45.22
2022-12-24T17:28:28.347Z,42.65
2022-12-24T17:31:30.948Z,49.90
2022-12-24T17:34:33.246Z,53.22
2022-12-24T17:37:35.796Z,44.85
2022-12-24T17:40:37.884Z,45.25
2022-12-24T17:43:40.344Z,45.70
2022-12-24T17:46:47.090Z,44.72
2022-12-24T17:49:51.388Z,48.72
2022-12-24T17:52:53.440Z,48.80
2022-12-24T17:55:55.450Z,43.72
2022-12-24T17:59:05.582Z,54.38
2022-12-24T18:02:11.897Z,55.47
2022-12-24T18:05:14.024Z,63.22
2022-12-24T18:08:16.973Z,66.07
2022-12-24T18:11:25.094Z,57.97
2022-12-24T18:14:27.913Z,65.18
2022-12-24T18:17:34.218Z,58.47
2022-12-24T18:20:42.717Z,58.92
2022-12-24T18:23:50.892Z,57.50
2022-12-24T18:26:56.019Z,53.95
2022-12-24T18:29:58.119Z,59.65
2022-12-24T18:33:01.261Z,48.55
2022-12-24T18:36:09.322Z,56.17
2022-12-24T18:39:11.345Z,45.15
2022-12-24T18:42:14.852Z,54.05
2022-12-24T18:45:17.079Z,45.67
2022-12-24T18:48:19.158Z,46.10
2022-12-24T18:51:23.013Z,54.00
2022-12-24T18:54:25.352Z,53.97
2022-12-24T18:57:28.075Z,51.38
2022-12-24T19:00:30.219Z,60.40
2022-12-24T19:03:32.309Z,58.25
2022-12-24T19:06:52.995Z,56.58
2022-12-24T19:09:55.761Z,62.25
2022-12-24T19:12:57.776Z,59.05
2022-12-24T19:16:00.432Z,63.47
2022-12-24T19:19:04.963Z,70.80
2022-12-24T19:22:07.012Z,64.15
2022-12-24T19:25:15.566Z,68.63
2022-12-24T19:28:24.118Z,68.95
2022-12-24T19:31:27.972Z,69.22
2022-12-24T19:34:30.378Z,65.70
2022-12-24T19:37:32.493Z,77.07
2022-12-24T19:40:38.260Z,93.18
2022-12-24T19:43:43.072Z,64.30
2022-12-24T19:46:45.235Z,73.85
2022-12-24T19:49:50.352Z,75.35
2022-12-24T19:52:52.421Z,74.18
2022-12-24T19:55:54.428Z,79.65
2022-12-24T19:58:57.574Z,93.45
2022-12-24T20:02:02.753Z,87.65
2022-12-24T20:05:06.206Z,88.18
2022-12-24T20:08:08.240Z,89.95
2022-12-24T20:11:16.787Z,83.32
2022-12-24T20:17:20.502Z,91.28
2022-12-24T20:20:22.542Z,93.90
2022-12-24T20:23:26.968Z,94.50
2022-12-24T20:26:29.389Z,100.43
2022-12-24T20:29:31.525Z,98.72
2022-12-24T20:32:33.875Z,94.03
2022-12-24T20:35:36.091Z,97.53
2022-12-24T20:38:39.053Z,96.55
2022-12-24T20:41:41.088Z,100.50
2022-12-24T20:44:43.136Z,91.05
2022-12-24T20:47:45.205Z,92.57
2022-12-24T20:50:47.369Z,98.88
2022-12-24T20:53:49.830Z,95.22
2022-12-24T20:56:57.787Z,91.82
2022-12-24T21:03:04.033Z,97.72
2022-12-24T21:06:06.547Z,81.70
2022-12-24T21:09:08.800Z,83.03
2022-12-24T21:12:36.049Z,84.32
2022-12-24T21:15:40.999Z,92.97
2022-12-24T21:18:43.089Z,97.72
2022-12-24T21:25:05.949Z,92.28
2022-12-24T21:28:08.167Z,98.70
2022-12-24T21:31:14.704Z,94.93
2022-12-24T21:34:16.793Z,98.32
2022-12-24T21:37:21.039Z,100.43
2022-12-24T21:40:23.194Z,94.10
2022-12-24T21:43:25.195Z,100.30
2022-12-24T21:46:27.389Z,103.68
2022-12-24T21:49:48.768Z,98.85
2022-12-24T21:53:10.929Z,99.35
2022-12-24T21:56:13.016Z,95.32
2022-12-24T21:59:14.953Z,92.53
2022-12-24T22:02:17.620Z,105.30
2022-12-24T22:05:20.927Z,91.13
2022-12-24T22:08:41.462Z,97.57
2022-12-24T22:11:54.335Z,99.03
2022-12-24T22:14:57.156Z,92.35
2022-12-24T22:17:59.198Z,93.32
2022-12-24T22:21:02.814Z,84.70
2022-12-24T22:24:05.224Z,73.15
2022-12-24T22:27:07.190Z,69.75
2022-12-24T22:30:10.087Z,81.70
2022-12-24T22:33:12.192Z,69.78
2022-12-24T22:36:14.217Z,66.78
2022-12-24T22:39:16.223Z,77.53
2022-12-24T22:42:18.263Z,78.80
2022-12-24T22:45:22.690Z,75.72
2022-12-24T22:48:24.956Z,75.15
2022-12-24T22:51:27.282Z,72.82
2022-12-24T22:54:29.338Z,68.45
2022-12-24T22:57:31.701Z,78.18
2022-12-24T23:00:43.642Z,78.50
2022-12-24T23:03:45.803Z,71.75
2022-12-24T23:06:48.025Z,89.43
2022-12-24T23:09:50.189Z,81.90
2022-12-24T23:13:14.803Z,92.22
2022-12-24T23:16:17.506Z,103.57
2022-12-24T23:19:19.791Z,96.75
2022-12-24T23:22:22.091Z,98.93
2022-12-24T23:25:25.734Z,96.93
2022-12-24T23:28:27.751Z,106.75
2022-12-24T23:31:30.985Z,116.35
2022-12-24T23:34:33.193Z,112.93
2022-12-24T23:37:35.662Z,104.53
2022-12-24T23:40:37.794Z,104.85
2022-12-24T23:43:39.953Z,109.45
2022-12-24T23:46:42.093Z,107.25
2022-12-24T23:49:44.403Z,97.80
2022-12-24T23:52:46.410Z,88.20
2022-12-24T23:55:48.440Z,92.22
2022-12-24T23:58:50.605Z,102.32
